Time;durP1;ratioP1;P1;durP2;ratioP2;P2;SDS_P1;SDS_P2;PMS_P1;PMS_P2;Temp;Humidity;BMP_temperature;BMP_pressure;BME280_temperature;BME280_humidity;BME280_pressure;Samples;Min_cycle;Max_cycle;Signal;HPM_P1;HPM_P2
2021/05/17 00:02:04;;;;;;;14.15;9.63;;;10.70;99.90;;;;;;5065579;28;20107;-73
2021/05/17 00:04:33;;;;;;;19.58;9.77;;;10.70;99.90;;;;;;5061670;28;20032;-72
2021/05/17 00:07:01;;;;;;;15.38;9.13;;;10.70;99.90;;;;;;5066271;28;20386;-73
2021/05/17 00:09:27;;;;;;;20.45;10.65;;;10.70;99.90;;;;;;5060415;28;20048;-73
2021/05/17 00:11:54;;;;;;;19.00;9.55;;;10.60;99.90;;;;;;5068344;28;20340;-73
2021/05/17 00:14:22;;;;;;;14.80;8.88;;;10.60;99.90;;;;;;5058964;28;20029;-73
2021/05/17 00:16:48;;;;;;;19.17;9.80;;;10.60;99.90;;;;;;5061495;28;20024;-73
2021/05/17 00:19:14;;;;;;;17.48;9.60;;;10.60;99.90;;;;;;5061669;28;20099;-73
2021/05/17 00:21:41;;;;;;;16.75;9.70;;;10.70;99.90;;;;;;5062840;28;20480;-73
2021/05/17 00:24:09;;;;;;;17.52;9.82;;;10.60;99.90;;;;;;5066871;28;20105;-73
2021/05/17 00:26:36;;;;;;;15.80;9.13;;;10.70;99.90;;;;;;5060579;28;20035;-72
2021/05/17 00:29:03;;;;;;;18.20;10.05;;;10.60;99.90;;;;;;5066507;28;20037;-73
2021/05/17 00:31:29;;;;;;;20.13;9.85;;;10.60;99.90;;;;;;5061215;28;20029;-73
2021/05/17 00:33:55;;;;;;;19.75;9.63;;;10.60;99.90;;;;;;5065982;28;20029;-73
2021/05/17 00:36:22;;;;;;;19.30;9.70;;;10.60;99.90;;;;;;5060661;28;20083;-73
2021/05/17 00:38:48;;;;;;;17.45;9.55;;;10.60;99.90;;;;;;5062237;28;20028;-73
2021/05/17 00:41:15;;;;;;;20.48;9.68;;;10.60;99.90;;;;;;5041835;28;20029;-72
2021/05/17 00:43:41;;;;;;;15.93;8.98;;;10.50;99.90;;;;;;5049699;28;20025;-73
2021/05/17 00:46:10;;;;;;;17.85;9.95;;;10.50;99.90;;;;;;5045228;28;20033;-73
2021/05/17 00:48:37;;;;;;;19.52;9.98;;;10.50;99.90;;;;;;5064107;28;20444;-73
2021/05/17 00:51:05;;;;;;;18.02;9.57;;;10.50;99.90;;;;;;5061093;28;20031;-72
2021/05/17 00:53:31;;;;;;;20.90;10.40;;;10.50;99.90;;;;;;5060601;28;20511;-73
2021/05/17 00:55:57;;;;;;;21.13;9.52;;;10.50;99.90;;;;;;5062320;28;20056;-73
2021/05/17 00:58:23;;;;;;;20.55;11.07;;;10.40;99.90;;;;;;5049551;28;20063;-73
2021/05/17 01:00:49;;;;;;;22.88;10.18;;;10.40;99.90;;;;;;5066300;28;20040;-73
2021/05/17 01:03:15;;;;;;;22.25;10.40;;;10.40;99.90;;;;;;5062990;28;20033;-73
2021/05/17 01:05:41;;;;;;;19.40;10.70;;;10.40;99.90;;;;;;5055114;28;20040;-73
2021/05/17 01:08:11;;;;;;;18.67;9.98;;;10.40;99.90;;;;;;5068012;28;22048;-73
2021/05/17 01:10:43;;;;;;;18.80;10.27;;;10.40;99.90;;;;;;5064299;28;20025;-73
2021/05/17 01:13:10;;;;;;;22.67;10.98;;;10.30;99.90;;;;;;5059549;28;20029;-73
2021/05/17 01:15:37;;;;;;;16.55;10.05;;;10.30;99.90;;;;;;5070616;28;20016;-72
2021/05/17 01:18:04;;;;;;;22.65;10.55;;;10.30;99.90;;;;;;5063016;28;20517;-72
2021/05/17 01:20:33;;;;;;;17.52;10.75;;;10.30;99.90;;;;;;5054089;28;20063;-73
2021/05/17 01:25:49;;;;;;;20.42;10.00;;;10.30;99.90;;;;;;5065604;28;20029;-73
2021/05/17 01:28:22;;;;;;;16.67;10.05;;;10.30;99.90;;;;;;5066741;28;20505;-72
2021/05/17 01:30:50;;;;;;;19.58;11.35;;;10.30;99.90;;;;;;5057686;28;20029;-73
2021/05/17 01:33:16;;;;;;;19.85;10.50;;;10.30;99.90;;;;;;5058885;28;20025;-72
2021/05/17 01:35:44;;;;;;;20.80;10.25;;;10.30;99.90;;;;;;5066760;28;20044;-73
2021/05/17 01:38:13;;;;;;;20.17;11.48;;;10.30;99.90;;;;;;5063435;28;20033;-73
2021/05/17 01:40:43;;;;;;;19.95;11.07;;;10.30;99.90;;;;;;5063015;28;20381;-73
2021/05/17 01:43:11;;;;;;;23.90;11.65;;;10.30;99.90;;;;;;5064576;28;20029;-73
2021/05/17 01:45:38;;;;;;;21.40;10.82;;;10.20;99.90;;;;;;5057252;28;20052;-72
2021/05/17 01:48:04;;;;;;;20.08;10.63;;;10.30;99.90;;;;;;5065519;28;20032;-73
2021/05/17 01:50:30;;;;;;;22.63;11.23;;;10.30;99.90;;;;;;5069975;28;20443;-72
2021/05/17 01:52:57;;;;;;;17.55;10.63;;;10.20;99.90;;;;;;5063756;28;20036;-73
2021/05/17 01:55:24;;;;;;;18.20;10.75;;;10.30;99.90;;;;;;5073051;28;20041;-73
2021/05/17 01:58:08;;;;;;;19.48;10.55;;;10.30;99.90;;;;;;5054353;28;20039;-73
2021/05/17 02:00:35;;;;;;;19.25;10.15;;;10.30;99.90;;;;;;5065294;28;20100;-73
2021/05/17 02:03:01;;;;;;;21.75;11.20;;;10.30;99.90;;;;;;5061998;28;20039;-73
2021/05/17 02:05:28;;;;;;;21.15;10.43;;;10.30;99.90;;;;;;5059749;28;20029;-72
2021/05/17 02:07:54;;;;;;;19.83;9.85;;;10.30;99.90;;;;;;5061321;28;20036;-72
2021/05/17 02:10:20;;;;;;;17.77;9.70;;;10.30;99.90;;;;;;5062939;28;20043;-72
2021/05/17 02:12:51;;;;;;;18.08;10.63;;;10.30;99.90;;;;;;5061078;28;20021;-73
2021/05/17 02:15:18;;;;;;;20.52;10.35;;;10.30;99.90;;;;;;5067510;28;20031;-72
2021/05/17 02:17:45;;;;;;;15.70;9.65;;;10.30;99.90;;;;;;5065803;28;20051;-72
2021/05/17 02:20:17;;;;;;;17.90;10.00;;;10.30;99.90;;;;;;5071769;28;20028;-73
2021/05/17 02:22:44;;;;;;;20.88;10.35;;;10.20;99.90;;;;;;5055848;28;20116;-73
2021/05/17 02:25:11;;;;;;;16.60;9.13;;;10.20;99.90;;;;;;5050008;28;20064;-73
2021/05/17 02:27:43;;;;;;;14.77;9.48;;;10.20;99.90;;;;;;5065793;28;20078;-72
2021/05/17 02:30:12;;;;;;;14.10;8.43;;;10.20;99.90;;;;;;5062729;28;20025;-73
2021/05/17 02:32:38;;;;;;;15.00;8.00;;;10.10;99.90;;;;;;5059886;28;20028;-73
2021/05/17 02:35:06;;;;;;;11.10;7.30;;;10.10;99.90;;;;;;5054390;28;20427;-73
2021/05/17 02:37:33;;;;;;;19.80;8.93;;;10.10;99.90;;;;;;5051778;28;20033;-73
2021/05/17 02:40:00;;;;;;;17.15;8.63;;;10.00;99.90;;;;;;5041701;28;20081;-73
2021/05/17 02:42:28;;;;;;;13.15;8.10;;;10.00;99.90;;;;;;5060371;28;20032;-73
2021/05/17 02:44:56;;;;;;;12.10;7.75;;;10.00;99.90;;;;;;5069066;28;20047;-73
2021/05/17 02:47:22;;;;;;;11.60;7.35;;;10.00;99.90;;;;;;5065688;28;20028;-73
2021/05/17 02:49:50;;;;;;;17.30;9.07;;;9.90;99.90;;;;;;5059815;28;20029;-72
2021/05/17 02:52:16;;;;;;;13.32;7.72;;;9.90;99.90;;;;;;5065096;28;20037;-73
2021/05/17 02:54:43;;;;;;;16.25;8.30;;;9.90;99.90;;;;;;5047336;28;20487;-72
2021/05/17 02:57:12;;;;;;;13.00;7.75;;;9.90;99.90;;;;;;5063226;28;20036;-73
2021/05/17 02:59:47;;;;;;;16.00;9.20;;;9.90;99.90;;;;;;5043871;28;20025;-72
2021/05/17 03:02:17;;;;;;;12.35;7.78;;;9.90;99.90;;;;;;5059452;28;20040;-72
2021/05/17 03:04:49;;;;;;;16.43;8.37;;;9.80;99.90;;;;;;5051683;28;20035;-73
2021/05/17 03:07:15;;;;;;;14.60;8.00;;;9.80;99.90;;;;;;5062313;28;20096;-72
2021/05/17 03:09:44;;;;;;;10.40;7.03;;;9.80;99.90;;;;;;5055965;28;20099;-72
2021/05/17 03:12:11;;;;;;;12.32;7.95;;;9.80;99.90;;;;;;5062549;28;20025;-72
2021/05/17 03:14:41;;;;;;;14.77;8.43;;;9.80;99.90;;;;;;5063858;28;20020;-72
2021/05/17 03:17:10;;;;;;;17.63;8.57;;;9.70;99.90;;;;;;5057947;28;20029;-72
2021/05/17 03:19:37;;;;;;;17.00;8.07;;;9.70;99.90;;;;;;5068951;28;20024;-73
2021/05/17 03:22:03;;;;;;;15.45;7.80;;;9.70;99.90;;;;;;5055645;28;20039;-72
2021/05/17 03:24:34;;;;;;;13.02;8.90;;;9.70;99.90;;;;;;5054210;28;20031;-73
2021/05/17 03:27:20;;;;;;;13.13;7.93;;;9.70;99.90;;;;;;5050273;28;20056;-73
2021/05/17 03:29:48;;;;;;;15.30;7.63;;;9.70;99.90;;;;;;5055327;28;20064;-72
2021/05/17 03:32:14;;;;;;;12.52;7.80;;;9.60;99.90;;;;;;5063794;28;20037;-73
2021/05/17 03:34:39;;;;;;;12.60;7.85;;;9.70;99.90;;;;;;5062657;28;20036;-73
2021/05/17 03:37:05;;;;;;;15.52;9.05;;;9.60;99.90;;;;;;5059040;28;20036;-73
2021/05/17 03:39:31;;;;;;;20.58;10.07;;;9.60;99.90;;;;;;5057314;28;20459;-75
2021/05/17 03:41:57;;;;;;;14.98;8.57;;;9.70;99.90;;;;;;5052712;28;20028;-73
2021/05/17 03:44:22;;;;;;;12.18;7.70;;;9.70;99.90;;;;;;5068288;28;20025;-73
2021/05/17 03:46:48;;;;;;;17.35;8.38;;;9.70;99.90;;;;;;5056797;28;20024;-73
2021/05/17 03:49:14;;;;;;;13.57;8.25;;;9.60;99.90;;;;;;5055215;28;20504;-73
2021/05/17 03:51:39;;;;;;;14.07;7.95;;;9.60;99.90;;;;;;5061805;28;20025;-73
2021/05/17 03:54:05;;;;;;;15.75;9.38;;;9.60;99.90;;;;;;5063972;28;20115;-73
2021/05/17 03:56:31;;;;;;;12.27;8.10;;;9.60;99.90;;;;;;5057329;28;20033;-73
2021/05/17 03:58:57;;;;;;;13.48;8.60;;;9.60;99.90;;;;;;5057432;28;20078;-73
2021/05/17 04:01:22;;;;;;;16.25;8.98;;;9.60;99.90;;;;;;5054832;28;20060;-73
2021/05/17 04:03:48;;;;;;;17.25;9.82;;;9.70;99.90;;;;;;5060387;28;20062;-73
2021/05/17 04:06:21;;;;;;;16.75;8.98;;;9.70;99.90;;;;;;5058153;28;20414;-73
2021/05/17 04:14:23;;;;;;;14.63;8.77;;;9.80;99.90;;;;;;5034858;28;20060;-73
2021/05/17 04:16:49;;;;;;;15.80;8.70;;;9.90;99.90;;;;;;5037151;28;20056;-73
2021/05/17 04:19:14;;;;;;;14.15;8.65;;;9.90;99.90;;;;;;5041871;28;20024;-73
2021/05/17 04:21:41;;;;;;;13.20;7.85;;;9.90;99.90;;;;;;5067179;28;20027;-73
2021/05/17 04:24:07;;;;;;;14.55;8.57;;;10.00;99.90;;;;;;5042980;28;20098;-74
2021/05/17 04:26:33;;;;;;;14.57;8.77;;;10.00;99.90;;;;;;5059166;28;20036;-73
2021/05/17 04:28:58;;;;;;;15.80;8.55;;;10.00;99.90;;;;;;5060352;28;20058;-73
2021/05/17 04:31:24;;;;;;;14.60;8.50;;;10.10;99.90;;;;;;5062910;28;20070;-73
2021/05/17 04:33:50;;;;;;;14.77;8.85;;;10.10;99.90;;;;;;5066057;28;20033;-73
2021/05/17 04:36:17;;;;;;;11.80;7.93;;;10.10;99.90;;;;;;5058825;28;20020;-73
2021/05/17 04:38:43;;;;;;;12.05;7.80;;;10.10;99.90;;;;;;5070215;28;20017;-74
2021/05/17 04:41:09;;;;;;;13.57;8.32;;;10.10;99.90;;;;;;5060988;28;20036;-73
2021/05/17 04:43:34;;;;;;;13.27;8.27;;;10.10;99.90;;;;;;5048136;28;20380;-73
2021/05/17 04:46:00;;;;;;;15.55;9.07;;;10.10;99.90;;;;;;5064582;28;20517;-73
2021/05/17 04:48:26;;;;;;;14.20;8.55;;;10.10;99.90;;;;;;5061977;28;20115;-73
2021/05/17 04:50:51;;;;;;;18.73;9.25;;;10.10;99.90;;;;;;5066715;28;20136;-73
2021/05/17 04:53:17;;;;;;;16.58;9.43;;;10.10;99.90;;;;;;5064468;28;20487;-74
2021/05/17 04:55:43;;;;;;;16.83;9.18;;;10.10;99.90;;;;;;5065527;28;20575;-72
2021/05/17 04:58:09;;;;;;;16.92;9.35;;;10.30;99.90;;;;;;5070748;28;20028;-73
2021/05/17 05:00:35;;;;;;;13.20;9.00;;;10.30;99.90;;;;;;5049269;28;20096;-73
2021/05/17 05:03:00;;;;;;;14.02;8.13;;;10.30;99.90;;;;;;5063800;28;20367;-74
2021/05/17 05:05:26;;;;;;;15.70;9.70;;;10.30;99.90;;;;;;5067298;28;20032;-73
2021/05/17 05:07:52;;;;;;;12.15;8.30;;;10.30;99.90;;;;;;5063087;28;20098;-77
2021/05/17 05:10:17;;;;;;;12.80;8.27;;;10.30;99.90;;;;;;5059472;28;20514;-75
2021/05/17 05:12:43;;;;;;;12.98;8.32;;;10.30;99.90;;;;;;5064950;28;20017;-74
2021/05/17 05:15:09;;;;;;;14.10;8.98;;;10.30;99.90;;;;;;5049089;28;20020;-74
2021/05/17 05:17:35;;;;;;;15.30;8.73;;;10.40;99.90;;;;;;5065872;28;20032;-73
2021/05/17 05:20:01;;;;;;;15.00;8.40;;;10.40;99.90;;;;;;5057629;28;20033;-73
2021/05/17 05:22:27;;;;;;;12.27;8.13;;;10.40;99.90;;;;;;5064926;28;20066;-74
2021/05/17 05:24:55;;;;;;;13.27;8.63;;;10.40;99.90;;;;;;5067358;28;20033;-74
2021/05/17 05:27:55;;;;;;;17.17;10.68;;;10.50;99.90;;;;;;5065330;28;20391;-74
2021/05/17 05:32:51;;;;;;;14.00;8.80;;;10.60;99.90;;;;;;5059269;28;20529;-75
2021/05/17 05:35:17;;;;;;;16.63;9.55;;;10.60;99.90;;;;;;5046983;28;20021;-74
2021/05/17 05:37:43;;;;;;;17.35;10.52;;;10.60;99.90;;;;;;5064387;28;20029;-74
2021/05/17 05:40:09;;;;;;;16.83;10.38;;;10.60;99.90;;;;;;5058168;28;20028;-74
2021/05/17 05:42:35;;;;;;;15.82;10.05;;;10.60;99.90;;;;;;5058619;28;20036;-73
2021/05/17 05:45:04;;;;;;;17.90;9.90;;;10.60;99.90;;;;;;5065488;28;20635;-73
2021/05/17 05:47:30;;;;;;;14.57;9.35;;;10.60;99.90;;;;;;5069354;28;20059;-73
2021/05/17 05:49:56;;;;;;;19.33;11.35;;;10.70;99.90;;;;;;5064606;28;20056;-74
2021/05/17 05:52:21;;;;;;;24.13;12.35;;;10.70;99.90;;;;;;5061568;28;20463;-69
2021/05/17 05:54:49;;;;;;;22.75;12.05;;;10.70;99.90;;;;;;5060564;28;20020;-70
2021/05/17 05:57:17;;;;;;;22.08;11.70;;;10.70;99.90;;;;;;5060021;28;20475;-72
2021/05/17 05:59:42;;;;;;;18.48;10.60;;;10.70;99.90;;;;;;5062777;28;20521;-71
2021/05/17 06:02:09;;;;;;;14.35;9.38;;;10.70;99.90;;;;;;5058856;28;20029;-73
2021/05/17 06:04:34;;;;;;;14.23;9.18;;;10.80;99.90;;;;;;5046558;28;20111;-73
2021/05/17 06:07:00;;;;;;;16.95;9.85;;;10.80;99.90;;;;;;5062248;28;20448;-73
2021/05/17 06:09:26;;;;;;;15.82;10.27;;;10.80;99.90;;;;;;5067513;28;20039;-73
2021/05/17 06:11:53;;;;;;;14.63;8.88;;;10.90;99.90;;;;;;5067247;28;20027;-71
2021/05/17 06:14:19;;;;;;;19.25;12.13;;;10.90;99.90;;;;;;5067998;28;20052;-73
2021/05/17 06:16:45;;;;;;;17.85;10.93;;;11.00;99.90;;;;;;5065257;28;20029;-70
2021/05/17 06:19:12;;;;;;;21.08;11.65;;;11.00;99.90;;;;;;5065791;28;20025;-72
2021/05/17 06:21:37;;;;;;;17.42;9.20;;;10.90;99.90;;;;;;5069737;28;20496;-72
2021/05/17 06:24:04;;;;;;;17.65;11.40;;;11.00;99.90;;;;;;5024793;28;20030;-72
2021/05/17 06:26:30;;;;;;;15.93;11.25;;;11.10;99.90;;;;;;5066906;28;20376;-69
2021/05/17 06:28:56;;;;;;;23.02;13.27;;;11.00;99.90;;;;;;5069031;28;20344;-71
2021/05/17 06:31:22;;;;;;;21.77;11.90;;;11.10;99.90;;;;;;5060896;28;20210;-70
2021/05/17 06:33:49;;;;;;;16.67;11.50;;;11.10;99.90;;;;;;5060095;28;20017;-68
2021/05/17 06:36:16;;;;;;;19.38;12.43;;;11.10;99.90;;;;;;5052602;28;20055;-69
2021/05/17 06:38:43;;;;;;;15.88;11.15;;;11.10;99.90;;;;;;5061403;28;20024;-69
2021/05/17 06:41:10;;;;;;;16.17;11.13;;;11.10;99.90;;;;;;5059439;28;20028;-69
2021/05/17 06:43:37;;;;;;;17.30;10.43;;;11.10;99.90;;;;;;5061680;28;20518;-69
2021/05/17 06:46:04;;;;;;;25.35;13.20;;;11.20;99.90;;;;;;5057161;28;20064;-70
2021/05/17 06:48:30;;;;;;;20.60;12.80;;;11.20;99.90;;;;;;5041216;28;20471;-71
2021/05/17 06:50:56;;;;;;;17.08;10.65;;;11.20;99.90;;;;;;5065670;28;20052;-70
2021/05/17 06:53:24;;;;;;;17.95;12.70;;;11.20;99.90;;;;;;5049495;28;20083;-69
2021/05/17 06:56:02;;;;;;;21.88;11.88;;;11.20;99.90;;;;;;5067664;28;20521;-70
2021/05/17 06:59:16;;;;;;;20.33;12.40;;;11.20;99.90;;;;;;5062206;28;20502;-70
2021/05/17 07:01:15;;;;;;;22.02;12.43;;;11.30;99.90;;;;;;5051913;28;20123;-69
2021/05/17 07:03:41;;;;;;;22.23;11.07;;;11.30;99.90;;;;;;5062026;28;20035;-71
2021/05/17 07:06:10;;;;;;;22.83;13.93;;;11.40;99.90;;;;;;5052945;28;20428;-70
2021/05/17 07:11:39;;;;;;;20.45;12.13;;;11.40;99.90;;;;;;5055965;28;20020;-70
2021/05/17 07:14:05;;;;;;;18.15;12.52;;;11.40;99.90;;;;;;5045185;28;20394;-71
2021/05/17 07:16:30;;;;;;;18.13;10.88;;;11.50;99.90;;;;;;5057746;28;20465;-72
2021/05/17 07:18:56;;;;;;;19.05;10.68;;;11.50;99.90;;;;;;5063883;28;20020;-71
2021/05/17 07:23:48;;;;;;;17.70;10.82;;;11.60;99.90;;;;;;5064207;28;20483;-69
2021/05/17 07:26:16;;;;;;;15.85;10.27;;;11.70;99.90;;;;;;5061792;28;20040;-69
2021/05/17 07:28:43;;;;;;;14.93;9.00;;;11.60;99.40;;;;;;5059739;28;20424;-69
2021/05/17 07:31:10;;;;;;;16.98;9.88;;;11.70;99.00;;;;;;5068558;28;20471;-69
2021/05/17 07:33:37;;;;;;;12.93;8.27;;;11.70;99.30;;;;;;5061881;28;20025;-69
2021/05/17 07:36:04;;;;;;;14.77;9.43;;;11.80;99.60;;;;;;5055481;28;20031;-67
2021/05/17 07:38:31;;;;;;;18.98;9.98;;;11.80;98.70;;;;;;5050982;28;20039;-69
2021/05/17 07:40:59;;;;;;;14.75;9.65;;;11.80;99.40;;;;;;5064908;28;20037;-69
2021/05/17 07:43:25;;;;;;;15.75;9.60;;;11.90;99.90;;;;;;5067086;28;20115;-69
2021/05/17 07:45:52;;;;;;;14.38;9.15;;;11.90;99.20;;;;;;5062526;28;20033;-72
2021/05/17 07:48:18;;;;;;;13.90;8.88;;;12.00;99.70;;;;;;5059050;28;20025;-69
2021/05/17 07:50:44;;;;;;;12.52;8.63;;;12.00;99.70;;;;;;5061222;28;20047;-69
2021/05/17 07:53:10;;;;;;;17.40;9.07;;;12.10;99.00;;;;;;5039007;28;20499;-69
2021/05/17 07:55:35;;;;;;;13.02;7.65;;;12.10;97.80;;;;;;5054456;28;20135;-69
2021/05/17 07:58:01;;;;;;;12.40;7.07;;;12.10;96.40;;;;;;5052588;28;20511;-69
2021/05/17 08:00:27;;;;;;;11.35;7.43;;;12.20;97.90;;;;;;5058536;28;20032;-69
2021/05/17 08:02:53;;;;;;;9.13;6.22;;;12.30;97.60;;;;;;5054013;28;20092;-69
2021/05/17 08:05:18;;;;;;;11.75;6.75;;;12.30;97.90;;;;;;5058665;28;20032;-69
2021/05/17 08:07:44;;;;;;;9.07;5.35;;;12.40;98.60;;;;;;5041347;28;21979;-68
2021/05/17 08:10:11;;;;;;;11.40;5.93;;;12.40;98.70;;;;;;5054794;28;20507;-69
2021/05/17 08:12:37;;;;;;;7.28;4.65;;;12.50;98.50;;;;;;5056180;28;20067;-68
2021/05/17 08:15:04;;;;;;;10.88;5.93;;;12.60;99.10;;;;;;5037530;28;20613;-68
2021/05/17 08:17:30;;;;;;;6.35;4.97;;;12.60;95.10;;;;;;5054384;28;20044;-69
2021/05/17 08:19:56;;;;;;;9.43;4.88;;;12.70;95.20;;;;;;5055754;28;20383;-68
2021/05/17 08:22:22;;;;;;;11.43;6.00;;;12.70;96.50;;;;;;5057111;28;20032;-67
2021/05/17 08:24:48;;;;;;;10.43;5.60;;;12.80;94.60;;;;;;5058322;28;20032;-68
2021/05/17 08:27:14;;;;;;;10.20;5.40;;;12.80;95.60;;;;;;5055429;28;20025;-69
2021/05/17 08:29:39;;;;;;;9.13;4.80;;;12.90;93.90;;;;;;5054231;28;20039;-69
2021/05/17 08:32:10;;;;;;;4.97;4.15;;;12.90;95.10;;;;;;5054993;28;20024;-69
2021/05/17 08:34:37;;;;;;;10.48;5.20;;;13.00;95.90;;;;;;5059189;28;20380;-69
2021/05/17 08:37:04;;;;;;;7.22;4.32;;;13.10;95.70;;;;;;5060173;28;20438;-69
2021/05/17 08:39:29;;;;;;;6.28;4.20;;;13.20;95.90;;;;;;5058497;28;20395;-67
2021/05/17 08:41:59;;;;;;;5.88;3.35;;;13.20;92.90;;;;;;5060413;28;20033;-68
2021/05/17 08:44:26;;;;;;;3.22;2.60;;;13.30;93.90;;;;;;5060159;28;20082;-68
2021/05/17 08:46:52;;;;;;;6.68;3.33;;;13.40;94.50;;;;;;5055791;28;20037;-68
2021/05/17 08:49:18;;;;;;;5.72;2.60;;;13.40;94.00;;;;;;5058814;28;20012;-68
2021/05/17 08:51:46;;;;;;;5.18;2.83;;;13.40;94.50;;;;;;5045904;28;20025;-68
2021/05/17 08:54:13;;;;;;;6.68;3.30;;;13.50;95.00;;;;;;5066508;28;20025;-69
2021/05/17 08:56:44;;;;;;;9.23;3.67;;;13.50;95.00;;;;;;5054856;28;20029;-68
2021/05/17 08:59:11;;;;;;;4.45;2.40;;;13.50;92.50;;;;;;5057445;28;20102;-68
2021/05/17 09:01:37;;;;;;;6.20;2.63;;;13.60;92.70;;;;;;5059063;28;20033;-69
2021/05/17 09:04:06;;;;;;;4.43;1.92;;;13.60;91.50;;;;;;5055233;28;20031;-68
2021/05/17 09:06:56;;;;;;;4.22;2.00;;;13.70;92.20;;;;;;5063018;28;20035;-68
2021/05/17 09:09:28;;;;;;;3.38;2.00;;;13.80;92.30;;;;;;5053174;28;20471;-68
2021/05/17 09:11:59;;;;;;;5.32;1.90;;;13.80;90.10;;;;;;5058193;28;20036;-68
2021/05/17 09:14:26;;;;;;;;;;;13.80;90.60;;;;;;5059124;28;20025;-68
2021/05/17 09:16:59;;;;;;;3.38;1.92;;;13.80;91.50;;;;;;5050322;28;19912;-69
2021/05/17 09:19:28;;;;;;;6.53;2.88;;;13.80;92.30;;;;;;5064178;28;20021;-68
2021/05/17 09:22:06;;;;;;;4.85;2.95;;;13.80;91.00;;;;;;5061133;28;20032;-68
2021/05/17 09:24:38;;;;;;;5.22;2.60;;;13.90;91.50;;;;;;5053947;28;20043;-68
2021/05/17 09:27:08;;;;;;;4.93;2.97;;;14.00;88.30;;;;;;5065610;28;20041;-69
2021/05/17 09:29:45;;;;;;;6.10;3.42;;;14.20;91.00;;;;;;5062918;28;20477;-69
2021/05/17 09:32:22;;;;;;;5.50;3.10;;;14.30;90.30;;;;;;5060384;28;20039;-68
2021/05/17 09:35:03;;;;;;;6.65;3.13;;;14.30;91.70;;;;;;5062574;28;20511;-68
2021/05/17 09:37:41;;;;;;;;;;;14.40;92.10;;;;;;5050435;28;20060;-68
2021/05/17 09:40:26;;;;;;;5.82;3.92;;;14.40;92.70;;;;;;5072125;28;19908;-69
2021/05/17 09:43:07;;;;;;;10.95;4.07;;;14.50;93.00;;;;;;5059972;28;20156;-69
2021/05/17 09:45:41;;;;;;;6.68;3.75;;;14.60;87.00;;;;;;5064009;28;20036;-68
2021/05/17 09:48:19;;;;;;;5.55;4.22;;;14.60;90.60;;;;;;5056589;28;20025;-68
2021/05/17 09:50:57;;;;;;;6.32;4.32;;;14.60;89.70;;;;;;5044639;28;20025;-69
2021/05/17 09:53:28;;;;;;;5.88;4.13;;;14.60;86.10;;;;;;5068362;28;20024;-69
2021/05/17 09:55:53;;;;;;;5.05;3.72;;;14.60;89.00;;;;;;5063120;28;20115;-69
2021/05/17 09:58:32;;;;;;;6.25;4.15;;;14.50;90.30;;;;;;5058599;28;20115;-69
2021/05/17 10:01:10;;;;;;;5.82;3.90;;;14.40;90.30;;;;;;5060972;28;20032;-68
2021/05/17 10:03:48;;;;;;;6.47;3.20;;;14.40;91.00;;;;;;5055162;28;20259;-68
2021/05/17 10:06:19;;;;;;;6.57;2.95;;;14.40;91.50;;;;;;5064613;28;20032;-67
2021/05/17 10:08:45;;;;;;;4.00;2.72;;;14.40;92.60;;;;;;5046834;28;20491;-68
2021/05/17 10:11:11;;;;;;;5.82;2.78;;;14.40;92.70;;;;;;5067237;28;20032;-68
2021/05/17 10:13:38;;;;;;;5.10;2.92;;;14.50;90.30;;;;;;5062702;28;20075;-69
2021/05/17 10:16:09;;;;;;;5.97;3.33;;;14.60;91.00;;;;;;5046476;28;20025;-68
2021/05/17 10:18:36;;;;;;;;;;;14.70;90.10;;;;;;5049439;28;20055;-69
2021/05/17 10:21:04;;;;;;;7.07;2.90;;;14.80;91.10;;;;;;5057341;28;20345;-69
2021/05/17 10:23:30;;;;;;;3.55;2.60;;;14.90;89.90;;;;;;5051375;28;20033;-68
2021/05/17 10:26:22;;;;;;;4.80;3.13;;;15.00;91.10;;;;;;5062286;28;20485;-69
2021/05/17 10:28:53;;;;;;;8.80;3.70;;;15.10;83.70;;;;;;5042739;28;20565;-69
2021/05/17 10:31:22;;;;;;;7.00;2.75;;;15.10;87.80;;;;;;5057759;28;20131;-69
2021/05/17 10:34:01;;;;;;;6.15;3.22;;;15.20;90.20;;;;;;5062912;28;20029;-69
2021/05/17 10:36:57;;;;;;;4.35;2.80;;;15.40;90.00;;;;;;5058021;28;20067;-68
2021/05/17 10:39:32;;;;;;;6.78;2.70;;;15.40;90.00;;;;;;5058064;28;20036;-68
2021/05/17 10:48:11;;;;;;;5.78;3.00;;;15.60;81.80;;;;;;5001901;28;20088;-68
2021/05/17 10:50:38;;;;;;;5.35;3.50;;;15.50;85.40;;;;;;5006058;28;20129;-68
2021/05/17 10:53:04;;;;;;;5.68;3.60;;;15.40;87.20;;;;;;5002932;28;20095;-68
2021/05/17 10:55:33;;;;;;;5.68;3.60;;;15.30;88.90;;;;;;4998277;28;20589;-69
2021/05/17 10:58:16;;;;;;;6.00;3.78;;;15.30;89.80;;;;;;5000622;28;20104;-69
2021/05/17 11:00:44;;;;;;;6.20;3.28;;;15.30;88.50;;;;;;5000703;28;20038;-69
2021/05/17 11:03:12;;;;;;;6.05;3.88;;;15.30;90.80;;;;;;5010140;28;20040;-69
2021/05/17 11:05:40;;;;;;;6.72;3.30;;;15.20;88.60;;;;;;4999621;28;20052;-69
2021/05/17 11:08:08;;;;;;;4.18;2.70;;;15.00;84.60;;;;;;5004515;28;20037;-68
2021/05/17 11:10:41;;;;;;;4.40;2.47;;;14.80;87.10;;;;;;5003338;28;20053;-68
2021/05/17 11:13:30;;;;;;;4.10;2.60;;;14.70;88.40;;;;;;5008310;28;20564;-70
2021/05/17 11:15:59;;;;;;;12.32;4.50;;;14.50;86.80;;;;;;5000990;28;20046;-68
2021/05/17 11:18:30;;;;;;;10.52;4.80;;;14.10;94.30;;;;;;5027420;28;20049;-68
2021/05/17 11:21:02;;;;;;;12.43;5.95;;;13.70;95.50;;;;;;5063090;28;20020;-68
2021/05/17 11:23:31;;;;;;;9.15;5.28;;;13.40;96.80;;;;;;5060364;28;20075;-68
2021/05/17 11:28:39;;;;;;;14.75;9.20;;;12.90;98.60;;;;;;5051680;28;20037;-69
2021/05/17 11:31:26;;;;;;;11.60;10.20;;;12.70;99.30;;;;;;5052930;28;20025;-67
2021/05/17 11:34:06;;;;;;;12.23;8.35;;;12.70;99.80;;;;;;5056014;28;20059;-68
2021/05/17 11:36:39;;;;;;;8.98;7.75;;;12.80;99.90;;;;;;5063041;28;20024;-68
2021/05/17 11:39:08;;;;;;;21.58;8.70;;;13.00;99.90;;;;;;5061472;28;20028;-68
2021/05/17 11:41:50;;;;;;;8.35;6.32;;;14.10;99.90;;;;;;5065176;28;20024;-68
2021/05/17 11:44:23;;;;;;;41.88;10.20;;;15.40;99.90;;;;;;5065582;28;20036;-68
2021/05/17 11:47:02;;;;;;;9.57;4.50;;;16.40;99.90;;;;;;5060175;28;20048;-68
2021/05/17 11:49:29;;;;;;;37.83;6.57;;;17.10;99.90;;;;;;5061709;28;20096;-68
2021/05/17 11:51:58;;;;;;;9.50;4.78;;;17.70;99.90;;;;;;5054356;28;20052;-68
2021/05/17 11:54:29;;;;;;;5.75;4.65;;;18.50;99.90;;;;;;5060615;28;20049;-68
2021/05/17 11:56:58;;;;;;;;;;;18.60;99.30;;;;;;5064244;28;20028;-68
2021/05/17 11:59:30;;;;;;;5.15;3.17;;;18.80;99.00;;;;;;5059525;28;19908;-68
2021/05/17 12:01:58;;;;;;;4.88;2.30;;;18.80;99.00;;;;;;5057947;28;20128;-68
2021/05/17 12:04:34;;;;;;;4.60;2.53;;;19.00;98.50;;;;;;5060924;28;20067;-68
2021/05/17 12:07:11;;;;;;;4.45;3.15;;;18.80;93.60;;;;;;5050665;28;20162;-69
2021/05/17 12:09:48;;;;;;;3.25;2.60;;;18.10;94.00;;;;;;5060976;28;20031;-68
2021/05/17 12:12:14;;;;;;;4.55;3.42;;;17.20;96.50;;;;;;5055057;28;20074;-68
2021/05/17 12:14:42;;;;;;;4.35;3.40;;;16.60;97.20;;;;;;5060115;28;20033;-68
2021/05/17 12:17:10;;;;;;;4.82;3.72;;;16.10;97.80;;;;;;5055751;28;20427;-69
2021/05/17 12:19:36;;;;;;;4.88;3.55;;;15.80;98.60;;;;;;5055133;28;20613;-68
2021/05/17 12:22:37;;;;;;;3.85;3.40;;;15.40;98.50;;;;;;5039767;28;20061;-68
2021/05/17 12:25:04;;;;;;;5.13;3.63;;;15.30;99.30;;;;;;5034024;28;20469;-67
2021/05/17 12:27:30;;;;;;;4.40;3.90;;;15.10;97.40;;;;;;5056078;28;20036;-68
2021/05/17 12:30:00;;;;;;;7.85;4.75;;;15.20;98.90;;;;;;5067028;28;20483;-67
2021/05/17 12:32:40;;;;;;;4.43;3.25;;;15.90;99.90;;;;;;5059137;28;20082;-68
2021/05/17 12:35:09;;;;;;;3.77;2.60;;;17.00;99.90;;;;;;5059675;28;20025;-69
2021/05/17 12:37:42;;;;;;;5.05;2.78;;;17.70;99.90;;;;;;5057682;28;20406;-68
2021/05/17 12:40:28;;;;;;;3.50;2.40;;;18.40;98.30;;;;;;5061321;28;20044;-69
2021/05/17 12:43:17;;;;;;;3.10;2.30;;;19.00;98.00;;;;;;5039141;28;20143;-68
2021/05/17 12:45:50;;;;;;;2.58;1.55;;;19.60;93.90;;;;;;5056637;28;20413;-68
2021/05/17 12:48:21;;;;;;;3.42;1.60;;;20.00;89.10;;;;;;5049293;28;20036;-68
2021/05/17 12:50:51;;;;;;;2.33;1.48;;;20.10;91.10;;;;;;5060479;28;20021;-68
2021/05/17 12:53:19;;;;;;;1.85;1.35;;;20.30;93.10;;;;;;5061697;28;20166;-69
2021/05/17 12:55:53;;;;;;;3.47;1.75;;;20.30;92.10;;;;;;5061742;28;20029;-73
2021/05/17 12:58:33;;;;;;;5.50;1.95;;;19.90;86.60;;;;;;5066589;28;20166;-68
2021/05/17 13:01:08;;;;;;;3.33;1.10;;;19.40;85.00;;;;;;5060982;28;20079;-67
2021/05/17 13:03:36;;;;;;;2.95;1.65;;;18.80;87.60;;;;;;5060962;28;20040;-66
2021/05/17 13:06:07;;;;;;;1.65;1.55;;;18.50;84.50;;;;;;5061215;28;20394;-66
2021/05/17 13:08:36;;;;;;;3.63;1.83;;;18.00;87.40;;;;;;5065246;28;20024;-66
2021/05/17 13:11:11;;;;;;;3.15;2.00;;;17.70;91.10;;;;;;5058938;28;20059;-67
2021/05/17 13:13:47;;;;;;;2.70;1.98;;;17.60;91.40;;;;;;5065844;28;20467;-69
2021/05/17 13:16:13;;;;;;;2.72;2.08;;;17.60;91.80;;;;;;5049096;28;20055;-68